Time;durP1;ratioP1;P1;durP2;ratioP2;P2;SDS_P1;SDS_P2;PMS_P1;PMS_P2;Temp;Humidity;BMP_temperature;BMP_pressure;BME280_temperature;BME280_humidity;BME280_pressure;Samples;Min_cycle;Max_cycle;Signal;HPM_P1;HPM_P2
2021/09/12 00:00:58;;;;;;;30.85;25.50;;;16.90;99.90;;;;;;2072223;28;20030;-76
2021/09/12 00:01:58;;;;;;;31.65;25.88;;;16.90;99.90;;;;;;2072683;28;20775;-75
2021/09/12 00:02:59;;;;;;;34.33;26.88;;;16.90;99.90;;;;;;2072209;28;20090;-74
2021/09/12 00:04:00;;;;;;;32.45;26.52;;;16.90;99.90;;;;;;2073197;28;20060;-75
2021/09/12 00:05:00;;;;;;;32.95;25.90;;;16.90;99.90;;;;;;2073654;28;20034;-74
2021/09/12 00:06:01;;;;;;;31.50;25.63;;;16.80;99.90;;;;;;2072428;28;20022;-76
2021/09/12 00:07:01;;;;;;;30.77;25.10;;;16.80;99.90;;;;;;2072219;28;20585;-75
2021/09/12 00:08:03;;;;;;;31.42;24.48;;;16.80;99.90;;;;;;2072378;28;20074;-76
2021/09/12 00:09:03;;;;;;;30.60;24.77;;;16.80;99.90;;;;;;2072330;28;20477;-75
2021/09/12 00:10:05;;;;;;;30.73;24.42;;;16.80;99.90;;;;;;2072259;28;20034;-75
2021/09/12 00:11:06;;;;;;;29.33;24.27;;;16.70;99.90;;;;;;2071337;28;20089;-76
2021/09/12 00:12:07;;;;;;;30.27;25.42;;;16.80;99.90;;;;;;2071661;28;20061;-75
2021/09/12 00:13:08;;;;;;;32.35;25.20;;;16.70;99.90;;;;;;2071180;28;20400;-76
2021/09/12 00:14:08;;;;;;;31.67;25.58;;;16.80;99.90;;;;;;2071638;28;20032;-76
2021/09/12 00:15:11;;;;;;;29.58;24.50;;;16.70;99.90;;;;;;2072274;28;20080;-75
2021/09/12 00:16:13;;;;;;;31.52;24.80;;;16.70;99.90;;;;;;2072132;28;20439;-74
2021/09/12 00:17:14;;;;;;;29.52;24.38;;;16.70;99.90;;;;;;2072263;28;20029;-76
2021/09/12 00:18:15;;;;;;;30.73;25.10;;;16.70;99.90;;;;;;2072175;28;20045;-75
2021/09/12 00:19:15;;;;;;;32.50;25.92;;;16.70;99.90;;;;;;2072167;28;20022;-75
2021/09/12 00:20:16;;;;;;;31.42;25.60;;;16.70;99.90;;;;;;2079403;28;20542;-76
2021/09/12 00:21:16;;;;;;;31.65;26.00;;;16.70;99.90;;;;;;2079580;28;20034;-75
2021/09/12 00:22:17;;;;;;;32.22;26.73;;;16.70;99.90;;;;;;2071550;28;20038;-76
2021/09/12 00:23:17;;;;;;;32.03;26.13;;;16.70;99.90;;;;;;2072040;28;20037;-75
2021/09/12 00:24:18;;;;;;;30.67;25.73;;;16.70;99.90;;;;;;2072189;28;20025;-76
2021/09/12 00:25:19;;;;;;;32.20;26.42;;;16.70;99.90;;;;;;2072016;28;20399;-75
2021/09/12 00:26:19;;;;;;;32.72;26.30;;;16.70;99.90;;;;;;2072260;28;20022;-75
2021/09/12 00:27:20;;;;;;;33.00;26.80;;;16.70;99.90;;;;;;2079853;28;20063;-75
2021/09/12 00:28:20;;;;;;;30.98;25.55;;;16.70;99.90;;;;;;2079748;28;20523;-75
2021/09/12 00:29:21;;;;;;;34.75;27.63;;;16.70;99.90;;;;;;2072190;28;20114;-75
2021/09/12 00:30:22;;;;;;;31.88;26.48;;;16.70;99.90;;;;;;2072247;28;20029;-75
2021/09/12 00:31:22;;;;;;;33.53;27.63;;;16.70;99.90;;;;;;2073427;28;20029;-76
2021/09/12 00:32:24;;;;;;;33.72;27.42;;;16.70;99.90;;;;;;2072241;28;20034;-74
2021/09/12 00:33:24;;;;;;;32.80;26.85;;;16.70;99.90;;;;;;2073041;28;20026;-75
2021/09/12 00:34:25;;;;;;;32.63;27.42;;;16.60;99.90;;;;;;2073604;28;20096;-76
2021/09/12 00:35:26;;;;;;;32.67;26.83;;;16.60;99.90;;;;;;2081023;28;20585;-75
2021/09/12 00:36:26;;;;;;;33.60;26.63;;;16.60;99.90;;;;;;2081151;28;20029;-76
2021/09/12 00:37:27;;;;;;;32.95;26.73;;;16.60;99.90;;;;;;2081149;28;20112;-76
2021/09/12 00:38:27;;;;;;;37.05;27.85;;;16.60;99.90;;;;;;2081009;28;20041;-75
2021/09/12 00:39:29;;;;;;;34.08;27.23;;;16.60;99.90;;;;;;2081132;28;20116;-76
2021/09/12 00:40:30;;;;;;;36.22;26.70;;;16.60;99.90;;;;;;2080848;28;20037;-76
2021/09/12 00:41:38;;;;;;;36.67;28.85;;;16.50;99.90;;;;;;2081121;28;20036;-75
2021/09/12 00:42:39;;;;;;;36.80;29.08;;;16.50;99.90;;;;;;2080504;28;20025;-75
2021/09/12 00:43:39;;;;;;;36.28;29.08;;;16.50;99.90;;;;;;2081027;28;20033;-75
2021/09/12 00:44:40;;;;;;;36.03;28.20;;;16.50;99.90;;;;;;2080800;28;20075;-76
2021/09/12 00:45:41;;;;;;;35.38;29.00;;;16.50;99.90;;;;;;2081016;28;20026;-76
2021/09/12 00:46:44;;;;;;;34.33;28.35;;;16.40;99.90;;;;;;2072913;28;20025;-75
2021/09/12 00:47:46;;;;;;;36.20;28.23;;;16.50;99.90;;;;;;2073084;28;20058;-77
2021/09/12 00:48:46;;;;;;;35.42;28.33;;;16.40;99.90;;;;;;2082678;28;20064;-75
2021/09/12 00:49:47;;;;;;;34.40;27.77;;;16.50;99.90;;;;;;2082947;28;20029;-77
2021/09/12 00:50:49;;;;;;;34.55;27.40;;;16.40;99.90;;;;;;2075355;28;20030;-77
2021/09/12 00:51:50;;;;;;;35.67;28.05;;;16.40;99.90;;;;;;2074412;28;20029;-75
2021/09/12 00:52:55;;;;;;;34.35;27.83;;;16.40;99.90;;;;;;2073307;28;20507;-77
2021/09/12 00:53:58;;;;;;;38.75;29.20;;;16.40;99.90;;;;;;2073967;28;20124;-76
2021/09/12 00:55:00;;;;;;;36.33;28.70;;;16.40;99.90;;;;;;2073562;28;20038;-76
2021/09/12 00:56:02;;;;;;;37.35;29.50;;;16.40;99.90;;;;;;2073913;28;20054;-77
2021/09/12 00:57:06;;;;;;;37.20;29.90;;;16.40;99.90;;;;;;2073793;28;20399;-77
2021/09/12 00:58:10;;;;;;;37.35;30.50;;;16.30;99.90;;;;;;2073764;28;20402;-77
2021/09/12 00:59:12;;;;;;;36.75;29.67;;;16.30;99.90;;;;;;2073595;28;20506;-76
2021/09/12 01:00:13;;;;;;;37.00;29.38;;;16.30;99.90;;;;;;2080876;28;20025;-73
2021/09/12 01:01:14;;;;;;;35.92;29.30;;;16.30;99.90;;;;;;2081295;28;20018;-77
2021/09/12 01:02:18;;;;;;;36.83;29.38;;;16.30;99.90;;;;;;2073197;28;20040;-77
2021/09/12 01:03:19;;;;;;;36.97;29.02;;;16.30;99.90;;;;;;2073634;28;20025;-76
2021/09/12 01:04:19;;;;;;;35.60;28.38;;;16.30;99.90;;;;;;2081159;28;20048;-77
2021/09/12 01:05:20;;;;;;;34.20;27.92;;;16.30;99.90;;;;;;2081056;28;20041;-75
2021/09/12 01:06:22;;;;;;;37.90;29.67;;;16.30;99.90;;;;;;2073418;28;20017;-76
2021/09/12 01:07:22;;;;;;;38.75;30.02;;;16.30;99.90;;;;;;2072899;28;20080;-75
2021/09/12 01:08:23;;;;;;;37.22;29.45;;;16.30;99.90;;;;;;2072789;28;20026;-76
2021/09/12 01:09:24;;;;;;;37.63;29.75;;;16.30;99.90;;;;;;2073506;28;20033;-77
2021/09/12 01:10:24;;;;;;;37.95;29.77;;;16.30;99.90;;;;;;2073175;28;20080;-75
2021/09/12 01:11:25;;;;;;;38.45;30.33;;;16.30;99.90;;;;;;2073448;28;20029;-76
2021/09/12 01:12:26;;;;;;;40.42;31.45;;;16.30;99.90;;;;;;2073011;28;20030;-76
2021/09/12 01:13:26;;;;;;;36.53;29.73;;;16.30;99.90;;;;;;2073527;28;20594;-75
2021/09/12 01:14:29;;;;;;;38.17;30.33;;;16.30;99.90;;;;;;2073519;28;20419;-76
2021/09/12 01:15:30;;;;;;;38.63;29.95;;;16.20;99.90;;;;;;2081056;28;20018;-77
2021/09/12 01:16:30;;;;;;;38.35;29.77;;;16.20;99.90;;;;;;2081200;28;20044;-75
2021/09/12 01:17:31;;;;;;;36.72;29.38;;;16.20;99.90;;;;;;2073475;28;20105;-77
2021/09/12 01:18:32;;;;;;;38.92;30.30;;;16.20;99.90;;;;;;2073419;28;20079;-77
2021/09/12 01:19:34;;;;;;;39.00;31.05;;;16.20;99.90;;;;;;2073208;28;20833;-76
2021/09/12 01:20:34;;;;;;;39.90;30.90;;;16.30;99.90;;;;;;2072649;28;20176;-76
2021/09/12 01:21:35;;;;;;;37.92;30.17;;;16.20;99.90;;;;;;2072701;28;20145;-76
2021/09/12 01:22:36;;;;;;;39.70;30.45;;;16.20;99.90;;;;;;2072861;28;20444;-76
2021/09/12 01:23:36;;;;;;;38.28;30.17;;;16.20;99.90;;;;;;2073302;28;20034;-77
2021/09/12 01:24:37;;;;;;;40.78;30.58;;;16.30;99.90;;;;;;2072783;28;20770;-75
2021/09/12 01:25:38;;;;;;;38.85;29.67;;;16.20;99.90;;;;;;2080202;28;20068;-76
2021/09/12 01:26:39;;;;;;;37.00;29.88;;;16.20;99.90;;;;;;2080519;28;20079;-76
2021/09/12 01:27:39;;;;;;;36.75;28.73;;;16.20;99.90;;;;;;2073172;28;20033;-76
2021/09/12 01:28:41;;;;;;;36.38;29.38;;;16.20;99.90;;;;;;2073040;28;20045;-77
2021/09/12 01:29:42;;;;;;;39.38;30.48;;;16.20;99.90;;;;;;2073107;28;20041;-76
2021/09/12 01:30:43;;;;;;;36.65;29.08;;;16.20;99.90;;;;;;2072701;28;20376;-75
2021/09/12 01:31:43;;;;;;;36.80;29.20;;;16.20;99.90;;;;;;2073111;28;20036;-76
2021/09/12 01:32:44;;;;;;;37.45;28.98;;;16.20;99.90;;;;;;2072520;28;20026;-73
2021/09/12 01:33:44;;;;;;;34.67;28.17;;;16.20;99.90;;;;;;2073183;28;20095;-76
2021/09/12 01:34:45;;;;;;;34.47;27.65;;;16.20;99.90;;;;;;2073103;28;20037;-75
2021/09/12 01:35:46;;;;;;;37.15;28.67;;;16.20;99.90;;;;;;2080753;28;20506;-76
2021/09/12 01:36:46;;;;;;;36.00;28.40;;;16.20;99.90;;;;;;2080705;28;20033;-76
2021/09/12 01:37:47;;;;;;;40.40;30.67;;;16.20;99.90;;;;;;2073109;28;20029;-76
2021/09/12 01:38:48;;;;;;;38.30;29.73;;;16.20;99.90;;;;;;2073061;28;20033;-76
2021/09/12 01:39:48;;;;;;;42.20;31.38;;;16.20;99.90;;;;;;2072895;28;20380;-76
2021/09/12 01:40:49;;;;;;;40.95;31.15;;;16.20;99.90;;;;;;2080065;28;20026;-76
2021/09/12 01:41:49;;;;;;;39.72;30.58;;;16.20;99.90;;;;;;2080585;28;20048;-75
2021/09/12 01:42:50;;;;;;;39.67;30.30;;;16.20;99.90;;;;;;2072419;28;20075;-75
2021/09/12 01:44:01;;;;;;;40.00;30.02;;;16.10;99.90;;;;;;2072895;28;20398;-75
2021/09/12 01:45:02;;;;;;;39.58;29.98;;;16.10;99.90;;;;;;2080547;28;20127;-75
2021/09/12 01:46:02;;;;;;;38.22;29.45;;;16.10;99.90;;;;;;2080479;28;20037;-76
2021/09/12 01:47:03;;;;;;;40.53;30.02;;;16.10;99.90;;;;;;2080395;28;20107;-77
2021/09/12 01:48:04;;;;;;;38.83;30.23;;;16.10;99.90;;;;;;2072889;28;20096;-76
2021/09/12 01:49:06;;;;;;;41.38;31.08;;;16.10;99.90;;;;;;2080137;28;20507;-76
2021/09/12 01:50:07;;;;;;;42.13;32.03;;;16.10;99.90;;;;;;2080394;28;20084;-77
2021/09/12 01:51:08;;;;;;;41.70;31.67;;;16.10;99.90;;;;;;2071938;28;20044;-75
2021/09/12 01:52:13;;;;;;;40.30;31.00;;;16.10;99.90;;;;;;2072181;28;20034;-76
2021/09/12 01:53:14;;;;;;;39.78;30.63;;;16.10;99.90;;;;;;2072841;28;20022;-77
2021/09/12 01:54:15;;;;;;;39.55;30.20;;;16.10;99.90;;;;;;2072807;28;20479;-75
2021/09/12 01:55:15;;;;;;;36.92;29.48;;;16.10;99.90;;;;;;2072702;28;20029;-76
2021/09/12 01:56:16;;;;;;;42.30;31.30;;;16.10;99.90;;;;;;2072774;28;20534;-76
2021/09/12 01:57:18;;;;;;;40.13;30.92;;;16.10;99.90;;;;;;2072700;28;20026;-76
2021/09/12 01:58:18;;;;;;;40.05;30.33;;;16.10;99.90;;;;;;2080266;28;20534;-76
2021/09/12 01:59:19;;;;;;;39.65;30.58;;;16.10;99.90;;;;;;2080420;28;20025;-76
2021/09/12 02:00:20;;;;;;;38.65;29.13;;;16.20;99.90;;;;;;2080086;28;20083;-76
2021/09/12 02:01:20;;;;;;;39.28;30.55;;;16.20;99.90;;;;;;2080415;28;20029;-76
2021/09/12 02:02:21;;;;;;;38.67;30.13;;;16.20;99.90;;;;;;2072330;28;20018;-77
2021/09/12 02:03:22;;;;;;;35.83;28.13;;;16.20;99.90;;;;;;2072739;28;20368;-76
2021/09/12 02:04:22;;;;;;;38.45;28.88;;;16.30;99.90;;;;;;2072892;28;20044;-76
2021/09/12 02:05:23;;;;;;;37.47;29.50;;;16.20;99.90;;;;;;2080441;28;20037;-76
2021/09/12 02:06:23;;;;;;;37.17;28.60;;;16.30;99.90;;;;;;2072207;28;20136;-76
2021/09/12 02:07:24;;;;;;;38.28;29.42;;;16.30;99.90;;;;;;2072321;28;20483;-75
2021/09/12 02:08:24;;;;;;;39.42;29.77;;;16.30;99.90;;;;;;2072873;28;20029;-76
2021/09/12 02:09:27;;;;;;;36.25;29.05;;;16.30;99.90;;;;;;2080358;28;20422;-76
2021/09/12 02:10:28;;;;;;;37.40;28.77;;;16.30;99.90;;;;;;2079643;28;20029;-75
2021/09/12 02:11:29;;;;;;;36.88;28.75;;;16.30;99.90;;;;;;2072837;28;20037;-76
2021/09/12 02:12:30;;;;;;;36.42;27.45;;;16.30;99.90;;;;;;2072843;28;20061;-76
2021/09/12 02:13:30;;;;;;;32.35;26.20;;;16.40;99.90;;;;;;2073453;28;20026;-75
2021/09/12 02:14:31;;;;;;;34.55;27.60;;;16.40;99.90;;;;;;2072564;28;20073;-76
2021/09/12 02:15:31;;;;;;;35.17;27.80;;;16.40;99.90;;;;;;2072904;28;20026;-76
2021/09/12 02:16:32;;;;;;;34.28;26.92;;;16.40;99.90;;;;;;2072790;28;20504;-76
2021/09/12 02:17:32;;;;;;;31.35;25.52;;;16.40;99.90;;;;;;2072996;28;20018;-77
2021/09/12 02:18:33;;;;;;;30.67;26.17;;;16.50;99.90;;;;;;2072831;28;20029;-75
2021/09/12 02:19:34;;;;;;;31.45;25.67;;;16.50;99.90;;;;;;2077987;28;20033;-76
2021/09/12 02:20:34;;;;;;;32.25;25.85;;;16.50;99.90;;;;;;2078709;28;20029;-74
2021/09/12 02:21:36;;;;;;;34.47;26.58;;;16.50;99.90;;;;;;2072969;28;20751;-75
2021/09/12 02:22:36;;;;;;;30.77;24.90;;;16.50;99.90;;;;;;2079659;28;20109;-75
2021/09/12 02:23:37;;;;;;;32.65;26.00;;;16.50;99.90;;;;;;2080322;28;20026;-76
2021/09/12 02:24:37;;;;;;;34.35;27.33;;;16.50;99.90;;;;;;2072701;28;20049;-76
2021/09/12 02:25:38;;;;;;;31.90;26.35;;;16.50;99.90;;;;;;2073129;28;20037;-77
2021/09/12 02:26:39;;;;;;;32.80;25.75;;;16.50;99.90;;;;;;2073366;28;20553;-75
2021/09/12 02:27:39;;;;;;;30.60;25.52;;;16.50;99.90;;;;;;2080412;28;20510;-77
2021/09/12 02:28:40;;;;;;;31.77;25.95;;;16.50;99.90;;;;;;2080557;28;20084;-76
2021/09/12 02:29:40;;;;;;;30.67;25.00;;;16.50;99.90;;;;;;2072809;28;20044;-75
2021/09/12 02:30:42;;;;;;;32.97;25.77;;;16.60;99.90;;;;;;2072259;28;20046;-76
2021/09/12 02:31:43;;;;;;;31.67;25.67;;;16.60;99.90;;;;;;2072573;28;20403;-76
2021/09/12 02:32:43;;;;;;;32.30;25.70;;;16.50;99.90;;;;;;2072142;28;20037;-76
2021/09/12 02:33:44;;;;;;;32.75;25.95;;;16.60;99.90;;;;;;2072696;28;20495;-76
2021/09/12 02:34:45;;;;;;;33.70;26.27;;;16.60;99.90;;;;;;2072647;28;20045;-75
2021/09/12 02:35:45;;;;;;;34.95;26.55;;;16.60;99.90;;;;;;2072586;28;20056;-76
2021/09/12 02:36:46;;;;;;;32.40;26.63;;;16.60;99.90;;;;;;2079819;28;20056;-75
2021/09/12 02:37:47;;;;;;;32.88;26.65;;;16.60;99.90;;;;;;2079839;28;20117;-75
2021/09/12 02:38:47;;;;;;;35.65;26.75;;;16.60;99.90;;;;;;2079965;28;20049;-76
2021/09/12 02:39:48;;;;;;;33.40;26.23;;;16.60;99.90;;;;;;2071823;28;20041;-76
2021/09/12 02:40:49;;;;;;;31.88;25.92;;;16.60;99.90;;;;;;2071699;28;20041;-76
2021/09/12 02:41:49;;;;;;;32.00;25.75;;;16.60;99.90;;;;;;2071908;28;20053;-76
2021/09/12 02:42:50;;;;;;;31.15;25.10;;;16.60;99.90;;;;;;2079513;28;20574;-76
2021/09/12 02:43:50;;;;;;;30.40;25.00;;;16.60;99.90;;;;;;2072463;28;20042;-77
2021/09/12 02:44:51;;;;;;;31.00;25.38;;;16.60;99.90;;;;;;2072536;28;20030;-75
2021/09/12 02:45:52;;;;;;;32.30;26.90;;;16.60;99.90;;;;;;2072499;28;20022;-76
2021/09/12 02:46:52;;;;;;;30.50;25.58;;;16.60;99.90;;;;;;2072451;28;20037;-75
2021/09/12 02:47:53;;;;;;;31.65;25.63;;;16.60;99.90;;;;;;2072401;28;20033;-76
2021/09/12 02:48:53;;;;;;;29.75;25.38;;;16.60;99.90;;;;;;2072481;28;20033;-76
2021/09/12 02:49:54;;;;;;;31.58;26.05;;;16.60;99.90;;;;;;2072555;28;20037;-75
2021/09/12 02:50:55;;;;;;;30.35;24.80;;;16.60;99.90;;;;;;2072067;28;20572;-76
2021/09/12 02:51:55;;;;;;;31.35;24.83;;;16.60;99.90;;;;;;2072386;28;20511;-75
2021/09/12 02:52:56;;;;;;;30.92;24.55;;;16.60;99.90;;;;;;2071567;28;20034;-76
2021/09/12 02:53:56;;;;;;;29.10;24.65;;;16.60;99.90;;;;;;2071754;28;20037;-77
2021/09/12 02:54:57;;;;;;;31.25;24.92;;;16.60;99.90;;;;;;2071907;28;20037;-76
2021/09/12 02:55:58;;;;;;;28.65;23.80;;;16.70;99.90;;;;;;2072409;28;20466;-77
2021/09/12 02:56:58;;;;;;;29.42;23.85;;;16.70;99.90;;;;;;2079938;28;20751;-77
2021/09/12 02:57:59;;;;;;;28.27;23.33;;;16.70;99.90;;;;;;2079956;28;20497;-77
2021/09/12 02:59:00;;;;;;;28.35;23.73;;;16.70;99.90;;;;;;2072481;28;20026;-75
2021/09/12 03:00:00;;;;;;;28.40;22.55;;;16.70;99.90;;;;;;2072324;28;20032;-77
2021/09/12 03:01:01;;;;;;;26.52;22.58;;;16.70;99.90;;;;;;2079624;28;20033;-77
2021/09/12 03:02:01;;;;;;;26.73;22.58;;;16.70;99.90;;;;;;2080109;28;20131;-76
2021/09/12 03:03:02;;;;;;;27.77;23.45;;;16.60;99.90;;;;;;2071891;28;20104;-76
2021/09/12 03:04:03;;;;;;;28.15;23.55;;;16.60;99.90;;;;;;2072395;28;20483;-76
2021/09/12 03:05:04;;;;;;;27.75;22.65;;;16.60;99.90;;;;;;2072385;28;20033;-76
2021/09/12 03:06:04;;;;;;;28.20;24.00;;;16.60;99.90;;;;;;2072446;28;20479;-76
2021/09/12 03:07:05;;;;;;;27.30;22.90;;;16.60;99.90;;;;;;2072383;28;20026;-77
2021/09/12 03:08:06;;;;;;;27.27;22.38;;;16.60;99.90;;;;;;2079857;28;20029;-77
2021/09/12 03:09:06;;;;;;;26.00;21.85;;;16.60;99.90;;;;;;2079998;28;20033;-76
2021/09/12 03:10:07;;;;;;;27.17;22.55;;;16.60;99.90;;;;;;2072319;28;20026;-75
2021/09/12 03:11:08;;;;;;;29.10;23.17;;;16.60;99.90;;;;;;2079450;28;20033;-74
2021/09/12 03:12:08;;;;;;;28.55;23.05;;;16.60;99.90;;;;;;2079862;28;20112;-75
2021/09/12 03:13:09;;;;;;;26.25;22.13;;;16.60;99.90;;;;;;2079442;28;20029;-76
2021/09/12 03:14:10;;;;;;;27.50;22.88;;;16.60;99.90;;;;;;2071700;28;20030;-76
2021/09/12 03:15:10;;;;;;;28.73;23.40;;;16.60;99.90;;;;;;2063491;28;20476;-76
2021/09/12 03:16:11;;;;;;;28.50;23.73;;;16.60;99.90;;;;;;2071848;28;20034;-77
2021/09/12 03:17:12;;;;;;;29.42;23.35;;;16.60;99.90;;;;;;2072650;28;20360;-76
2021/09/12 03:18:13;;;;;;;28.92;23.67;;;16.60;99.90;;;;;;2080019;28;20458;-76
2021/09/12 03:19:15;;;;;;;28.00;23.95;;;16.60;99.90;;;;;;2080011;28;20108;-75
2021/09/12 03:20:15;;;;;;;28.17;23.52;;;16.60;99.90;;;;;;2079754;28;20487;-76
2021/09/12 03:21:17;;;;;;;28.23;23.40;;;16.50;99.90;;;;;;2079877;28;20037;-76
2021/09/12 03:22:17;;;;;;;30.08;23.65;;;16.50;99.90;;;;;;2071910;28;20014;-76
2021/09/12 03:23:18;;;;;;;29.27;24.25;;;16.50;99.90;;;;;;2072256;28;20034;-76
2021/09/12 03:24:18;;;;;;;28.38;23.52;;;16.50;99.90;;;;;;2072191;28;20021;-76
2021/09/12 03:25:19;;;;;;;29.02;23.42;;;16.50;99.90;;;;;;2079924;28;20457;-77
2021/09/12 03:26:20;;;;;;;27.58;23.25;;;16.50;99.90;;;;;;2079968;28;20617;-76
2021/09/12 03:27:20;;;;;;;29.73;23.02;;;16.50;99.90;;;;;;2072443;28;20054;-77
2021/09/12 03:28:21;;;;;;;26.58;22.25;;;16.50;99.90;;;;;;2079694;28;20032;-76
2021/09/12 03:29:21;;;;;;;25.90;22.17;;;16.50;99.90;;;;;;2079982;28;20503;-76
2021/09/12 03:30:22;;;;;;;26.92;22.55;;;16.50;99.90;;;;;;2071839;28;20446;-76
2021/09/12 03:31:23;;;;;;;27.52;23.17;;;16.50;99.90;;;;;;2072073;28;20037;-76
2021/09/12 03:32:23;;;;;;;26.55;21.85;;;16.50;99.90;;;;;;2071821;28;20476;-76
2021/09/12 03:33:24;;;;;;;25.20;21.42;;;16.50;99.90;;;;;;2072311;28;20108;-76
2021/09/12 03:34:25;;;;;;;24.92;21.20;;;16.50;99.90;;;;;;2072354;28;20022;-75
2021/09/12 03:35:25;;;;;;;25.92;21.73;;;16.50;99.90;;;;;;2071775;28;20364;-75
2021/09/12 03:36:26;;;;;;;26.65;22.63;;;16.40;99.90;;;;;;2071832;28;20105;-76
2021/09/12 03:37:27;;;;;;;28.15;22.88;;;16.40;99.90;;;;;;2072368;28;20044;-75
2021/09/12 03:38:30;;;;;;;28.35;23.23;;;16.40;99.90;;;;;;2072637;28;20030;-77
2021/09/12 03:39:31;;;;;;;27.95;22.83;;;16.40;99.90;;;;;;2071853;28;20062;-75
2021/09/12 03:40:32;;;;;;;28.35;23.30;;;16.40;99.90;;;;;;2063270;28;20050;-75
2021/09/12 03:41:33;;;;;;;26.70;22.73;;;16.40;99.90;;;;;;2071668;28;20042;-75
2021/09/12 03:42:33;;;;;;;26.98;22.33;;;16.40;99.90;;;;;;2079277;28;20029;-75
2021/09/12 03:43:34;;;;;;;27.30;21.48;;;16.40;99.90;;;;;;2079606;28;20037;-76
2021/09/12 03:44:34;;;;;;;25.52;21.48;;;16.40;99.90;;;;;;2079802;28;20060;-75
2021/09/12 03:45:35;;;;;;;27.27;21.25;;;16.40;99.90;;;;;;2072212;28;20510;-76
2021/09/12 03:46:36;;;;;;;24.92;21.13;;;16.40;99.90;;;;;;2071657;28;20041;-75
2021/09/12 03:47:37;;;;;;;23.92;20.48;;;16.40;99.90;;;;;;2063635;28;20058;-75
2021/09/12 03:48:38;;;;;;;26.48;21.63;;;16.40;99.90;;;;;;2071638;28;20057;-75
2021/09/12 03:49:38;;;;;;;28.70;21.98;;;16.40;99.90;;;;;;2072150;28;20034;-76
2021/09/12 03:50:39;;;;;;;25.50;22.02;;;16.40;99.90;;;;;;2071899;28;20495;-76
2021/09/12 03:51:39;;;;;;;28.58;21.88;;;16.40;99.90;;;;;;2072104;28;20030;-75
2021/09/12 03:52:40;;;;;;;27.67;22.23;;;16.40;99.90;;;;;;2071623;28;20068;-75
2021/09/12 03:53:41;;;;;;;27.10;22.42;;;16.40;99.90;;;;;;2072250;28;20022;-76
2021/09/12 03:54:42;;;;;;;26.75;22.38;;;16.40;99.90;;;;;;2072276;28;20468;-75
2021/09/12 03:55:43;;;;;;;26.42;21.88;;;16.40;99.90;;;;;;2072026;28;20030;-73
2021/09/12 03:56:43;;;;;;;25.70;21.90;;;16.40;99.90;;;;;;2079796;28;20062;-73
2021/09/12 03:57:44;;;;;;;26.35;21.88;;;16.40;99.90;;;;;;2079948;28;20105;-75
2021/09/12 03:58:44;;;;;;;26.63;22.00;;;16.30;99.90;;;;;;2079797;28;20036;-75
2021/09/12 03:59:45;;;;;;;25.63;22.02;;;16.30;99.90;;;;;;2079944;28;20136;-76
2021/09/12 04:00:46;;;;;;;27.02;22.20;;;16.30;99.90;;;;;;2071859;28;20026;-75
2021/09/12 04:01:46;;;;;;;26.13;21.30;;;16.30;99.90;;;;;;2079638;28;20034;-75
2021/09/12 04:02:47;;;;;;;23.77;20.70;;;16.30;99.90;;;;;;2079123;28;20116;-75
2021/09/12 04:03:47;;;;;;;25.58;21.38;;;16.30;99.90;;;;;;2079865;28;20036;-75
2021/09/12 04:04:48;;;;;;;25.30;21.00;;;16.30;99.90;;;;;;2072145;28;20503;-74
2021/09/12 04:05:49;;;;;;;26.10;21.58;;;16.30;99.90;;;;;;2073149;28;20034;-75
2021/09/12 04:06:49;;;;;;;27.73;21.95;;;16.30;99.90;;;;;;2073736;28;20038;-75
2021/09/12 04:07:50;;;;;;;25.67;21.48;;;16.30;99.90;;;;;;2073506;28;20502;-75
2021/09/12 04:08:51;;;;;;;26.70;21.48;;;16.30;99.90;;;;;;2073699;28;20116;-74
2021/09/12 04:09:52;;;;;;;25.65;22.23;;;16.30;99.90;;;;;;2073575;28;20037;-74
2021/09/12 04:10:53;;;;;;;26.85;22.63;;;16.30;99.90;;;;;;2073407;28;20033;-75
2021/09/12 04:11:53;;;;;;;24.70;21.40;;;16.30;99.90;;;;;;2073718;28;20030;-75
2021/09/12 04:12:54;;;;;;;26.23;21.48;;;16.30;99.90;;;;;;2073098;28;20146;-76
2021/09/12 04:13:54;;;;;;;26.25;21.50;;;16.30;99.90;;;;;;2081290;28;20021;-75
2021/09/12 04:14:55;;;;;;;25.70;20.48;;;16.30;99.90;;;;;;2081213;28;20033;-75
2021/09/12 04:15:55;;;;;;;25.45;21.75;;;16.30;99.90;;;;;;2073618;28;20088;-74
2021/09/12 04:16:56;;;;;;;25.67;21.08;;;16.30;99.90;;;;;;2073127;28;20053;-76
2021/09/12 04:17:57;;;;;;;27.85;21.88;;;16.30;99.90;;;;;;2073248;28;20072;-75
2021/09/12 04:18:57;;;;;;;24.63;21.27;;;16.30;99.90;;;;;;2073792;28;20079;-76
2021/09/12 04:19:58;;;;;;;26.88;21.83;;;16.30;99.90;;;;;;2073754;28;20105;-74
2021/09/12 04:20:59;;;;;;;27.25;21.95;;;16.30;99.90;;;;;;2072779;28;20496;-76
2021/09/12 04:21:59;;;;;;;25.60;21.38;;;16.30;99.90;;;;;;2073186;28;20026;-76
2021/09/12 04:23:00;;;;;;;25.15;21.08;;;16.30;99.90;;;;;;2073122;28;20034;-76
2021/09/12 04:24:00;;;;;;;26.80;22.55;;;16.30;99.90;;;;;;2073509;28;20047;-75
2021/09/12 04:25:02;;;;;;;26.30;21.52;;;16.30;99.90;;;;;;2073586;28;20107;-75
2021/09/12 04:26:03;;;;;;;24.55;21.67;;;16.30;99.90;;;;;;2073430;28;20034;-75
2021/09/12 04:27:04;;;;;;;26.48;22.58;;;16.30;99.90;;;;;;2073598;28;20042;-76
2021/09/12 04:28:05;;;;;;;24.45;21.40;;;16.30;99.90;;;;;;2073566;28;20033;-74
2021/09/12 04:29:05;;;;;;;24.63;21.63;;;16.30;99.90;;;;;;2073712;28;20514;-75
2021/09/12 04:30:08;;;;;;;27.13;22.52;;;16.30;99.90;;;;;;2073607;28;20033;-76
2021/09/12 04:31:10;;;;;;;27.85;22.45;;;16.30;99.90;;;;;;2073422;28;20046;-80
2021/09/12 04:32:10;;;;;;;26.60;22.40;;;16.30;99.90;;;;;;2073679;28;20025;-76
2021/09/12 04:33:11;;;;;;;25.35;22.05;;;16.30;99.90;;;;;;2072994;28;20068;-75
2021/09/12 04:34:11;;;;;;;25.52;21.55;;;16.30;99.90;;;;;;2073463;28;20076;-76
2021/09/12 04:35:12;;;;;;;26.17;21.92;;;16.30;99.90;;;;;;2073679;28;20022;-76
2021/09/12 04:36:13;;;;;;;25.25;21.83;;;16.30;99.90;;;;;;2073506;28;20022;-75
2021/09/12 04:37:14;;;;;;;25.90;21.73;;;16.30;99.90;;;;;;2073604;28;20080;-76
2021/09/12 04:38:15;;;;;;;24.17;20.88;;;16.30;99.90;;;;;;2073435;28;20038;-76
2021/09/12 04:39:16;;;;;;;25.30;21.42;;;16.40;99.90;;;;;;2081082;28;20041;-76
2021/09/12 04:40:16;;;;;;;25.58;21.55;;;16.40;99.90;;;;;;2081200;28;20355;-76
2021/09/12 04:41:17;;;;;;;24.25;20.42;;;16.40;99.90;;;;;;2074061;28;20040;-74
2021/09/12 04:42:18;;;;;;;24.25;21.30;;;16.40;99.90;;;;;;2081079;28;20049;-74
2021/09/12 04:43:18;;;;;;;23.10;19.80;;;16.40;99.90;;;;;;2081328;28;20048;-74
2021/09/12 04:44:19;;;;;;;25.50;20.98;;;16.40;99.90;;;;;;2073616;28;20044;-75
2021/09/12 04:45:19;;;;;;;25.20;21.27;;;16.40;99.90;;;;;;2073896;28;20024;-75
2021/09/12 04:46:20;;;;;;;27.60;23.08;;;16.40;99.90;;;;;;2074152;28;20168;-74
2021/09/12 04:47:21;;;;;;;25.75;21.95;;;16.40;99.90;;;;;;2074174;28;20030;-72
2021/09/12 04:48:21;;;;;;;28.00;23.33;;;16.50;99.90;;;;;;2074058;28;20022;-75
2021/09/12 04:49:22;;;;;;;29.35;23.52;;;16.50;99.90;;;;;;2073854;28;20038;-74
2021/09/12 04:50:22;;;;;;;28.35;22.60;;;16.50;99.90;;;;;;2073411;28;20026;-76
2021/09/12 04:51:24;;;;;;;27.45;22.15;;;16.50;99.90;;;;;;2073714;28;20029;-76
2021/09/12 04:52:24;;;;;;;24.83;21.30;;;16.60;99.90;;;;;;2073310;28;20026;-75
2021/09/12 04:53:25;;;;;;;25.00;20.95;;;16.60;99.90;;;;;;2073324;28;20026;-75
2021/09/12 04:54:26;;;;;;;24.15;21.08;;;16.60;99.90;;;;;;2073201;28;20022;-75
2021/09/12 04:55:26;;;;;;;25.42;21.85;;;16.60;99.90;;;;;;2074337;28;20022;-78
2021/09/12 04:56:27;;;;;;;25.55;22.17;;;16.60;99.90;;;;;;2074627;28;20859;-77
2021/09/12 04:57:27;;;;;;;24.90;21.30;;;16.60;99.90;;;;;;2074214;28;20301;-75
2021/09/12 04:58:28;;;;;;;25.80;21.95;;;16.60;99.90;;;;;;2082702;28;20025;-78
2021/09/12 04:59:29;;;;;;;24.98;21.50;;;16.70;99.90;;;;;;2082964;28;20455;-77
2021/09/12 05:00:30;;;;;;;27.30;21.17;;;16.70;99.90;;;;;;2074418;28;20030;-77
2021/09/12 05:01:32;;;;;;;25.73;21.23;;;16.70;99.90;;;;;;2074340;28;20204;-75
2021/09/12 05:02:32;;;;;;;23.73;20.27;;;16.70;99.90;;;;;;2080822;28;20061;-76
2021/09/12 05:03:33;;;;;;;24.48;21.02;;;16.70;99.90;;;;;;2081690;28;20026;-76
2021/09/12 05:04:34;;;;;;;23.10;19.75;;;16.70;99.90;;;;;;2074136;28;20026;-76
2021/09/12 05:05:35;;;;;;;21.58;19.27;;;16.70;99.90;;;;;;2074577;28;20048;-76
2021/09/12 05:06:35;;;;;;;22.25;19.25;;;16.70;99.90;;;;;;2074282;28;20049;-76
2021/09/12 05:07:36;;;;;;;23.08;19.65;;;16.70;99.90;;;;;;2074488;28;20026;-76
2021/09/12 05:08:36;;;;;;;23.70;19.58;;;16.70;99.90;;;;;;2074089;28;20041;-76
2021/09/12 05:09:37;;;;;;;23.77;19.02;;;16.70;99.90;;;;;;2075683;28;20052;-75